Time;durP1;ratioP1;P1;durP2;ratioP2;P2;SDS_P1;SDS_P2;PMS_P1;PMS_P2;Temp;Humidity;BMP_temperature;BMP_pressure;BME280_temperature;BME280_humidity;BME280_pressure;Samples;Min_cycle;Max_cycle;Signal;HPM_P1;HPM_P2
2022/02/18 00:00:46;;;;;;;;;8.75;8.50;;;;;9.10;71.58;100415.47;146607;581;46012;-82
2022/02/18 00:03:41;;;;;;;;;35.75;30.00;;;;;9.08;71.50;100416.22;146606;598;46012;-81
2022/02/18 00:06:33;;;;;;;;;29.50;25.25;;;;;9.08;71.83;100406.75;146605;569;46021;-81
2022/02/18 00:09:25;;;;;;;;;41.25;33.75;;;;;9.09;71.08;100413.69;146603;614;46916;-84
2022/02/18 00:12:17;;;;;;;;;25.00;22.25;;;;;9.12;70.67;100397.44;146608;576;46011;-85
2022/02/18 00:15:10;;;;;;;;;25.50;24.00;;;;;9.17;70.36;100402.06;146605;612;46012;-81
2022/02/18 00:18:02;;;;;;;;;29.50;26.75;;;;;9.24;70.21;100398.06;146605;698;46020;-84
2022/02/18 00:20:54;;;;;;;;;30.25;25.50;;;;;9.23;69.64;100391.12;146603;569;46016;-84
2022/02/18 00:23:47;;;;;;;;;145.00;126.25;;;;;9.23;70.35;100401.47;146607;651;46010;-88
2022/02/18 00:26:38;;;;;;;;;21.50;18.50;;;;;9.14;70.34;100407.06;146609;611;46016;-83
2022/02/18 00:29:31;;;;;;;;;56.00;45.00;;;;;9.07;70.77;100404.97;146605;719;46020;-76
2022/02/18 00:32:23;;;;;;;;;60.75;48.00;;;;;8.98;70.59;100417.44;146605;597;46033;-80
2022/02/18 00:35:19;;;;;;;;;61.50;47.50;;;;;8.92;70.89;100419.69;146609;576;46010;-76
2022/02/18 00:38:11;;;;;;;;;51.50;42.00;;;;;8.88;71.12;100420.31;146608;600;46012;-72
2022/02/18 00:41:06;;;;;;;;;40.75;34.25;;;;;8.81;72.07;100413.94;146606;581;46020;-73
2022/02/18 00:43:58;;;;;;;;;53.25;43.00;;;;;8.73;71.79;100416.13;146607;593;46916;-72
2022/02/18 00:46:51;;;;;;;;;62.75;49.00;;;;;8.70;71.89;100415.06;146606;564;46010;-72
2022/02/18 00:49:43;;;;;;;;;61.75;48.75;;;;;8.71;71.88;100416.84;146605;579;46016;-72
2022/02/18 00:52:35;;;;;;;;;49.25;41.00;;;;;8.72;71.41;100422.09;146607;569;46010;-72
2022/02/18 00:55:27;;;;;;;;;35.25;30.00;;;;;8.72;71.14;100416.94;146627;581;45916;-72
2022/02/18 00:58:20;;;;;;;;;32.75;29.00;;;;;8.64;71.33;100407.88;146629;606;45010;-70
2022/02/18 01:01:12;;;;;;;;;38.50;32.75;;;;;7.40;71.87;100210.00;146614;590;46016;-70
2022/02/18 01:04:05;;;;;;;;;35.25;31.00;;;;;8.50;71.77;100419.16;146626;690;46020;-70
2022/02/18 01:06:57;;;;;;;;;39.00;32.50;;;;;8.42;72.37;100416.16;146626;563;45916;-72
2022/02/18 01:09:49;;;;;;;;;37.25;31.25;;;;;8.32;71.71;100412.16;146627;599;45011;-70
2022/02/18 01:12:41;;;;;;;;;36.75;31.50;;;;;8.22;72.42;100406.37;146626;595;45017;-70
2022/02/18 01:15:33;;;;;;;;;35.25;32.00;;;;;8.14;72.06;100405.09;146629;578;45010;-69
2022/02/18 01:18:25;;;;;;;;;32.50;30.25;;;;;8.06;72.70;100396.87;146625;615;45016;-69
2022/02/18 01:21:18;;;;;;;;;35.50;31.50;;;;;7.98;72.42;100390.44;146624;603;45020;-68
2022/02/18 01:24:10;;;;;;;;;39.25;32.25;;;;;7.96;72.85;100376.53;146627;578;45031;-68
2022/02/18 01:27:03;;;;;;;;;34.75;29.25;;;;;7.92;72.28;100372.00;146626;612;45021;-72
2022/02/18 01:29:55;;;;;;;;;32.25;29.50;;;;;7.86;72.75;100380.28;146625;609;46916;-70
2022/02/18 01:32:47;;;;;;;;;31.00;26.00;;;;;7.89;72.95;100397.66;146630;632;45010;-72
2022/02/18 01:35:39;;;;;;;;;28.00;26.00;;;;;7.84;73.56;100402.53;146626;633;45016;-70
2022/02/18 01:38:31;;;;;;;;;29.00;26.25;;;;;7.79;73.40;100411.72;146626;633;45020;-72
2022/02/18 01:41:24;;;;;;;;;23.50;21.50;;;;;7.78;73.10;100412.50;146624;580;45017;-71
2022/02/18 01:44:42;;;;;;;;;34.25;29.75;;;;;7.77;73.13;100403.88;146629;628;45020;-71
2022/02/18 01:47:34;;;;;;;;;35.75;30.25;;;;;6.59;74.04;100195.94;146627;694;44916;-72
2022/02/18 01:50:26;;;;;;;;;27.25;25.25;;;;;7.82;72.72;100393.84;146626;563;45912;-76
2022/02/18 01:53:19;;;;;;;;;19.75;18.25;;;;;7.79;72.85;100389.37;146625;665;45014;-79
2022/02/18 01:56:13;;;;;;;;;23.75;20.25;;;;;7.80;72.76;100382.53;146606;586;46010;-81
2022/02/18 01:59:05;;;;;;;;;26.00;21.75;;;;;7.79;72.12;100375.59;146605;582;46014;-84
2022/02/18 02:02:03;;;;;;;;;23.25;19.75;;;;;7.81;72.87;100367.13;146605;573;46020;-79
2022/02/18 02:04:55;;;;;;;;;18.00;17.25;;;;;7.79;72.51;100367.84;146602;610;46016;-80
2022/02/18 02:07:49;;;;;;;;;14.25;14.25;;;;;7.76;72.27;100376.31;146604;569;46020;-82
2022/02/18 02:10:41;;;;;;;;;15.75;14.75;;;;;7.75;72.98;100373.63;146605;600;46012;-82
2022/02/18 02:13:40;;;;;;;;;13.00;11.50;;;;;7.69;72.64;100370.69;146607;611;45020;-79
2022/02/18 02:16:31;;;;;;;;;15.75;13.75;;;;;7.61;73.54;100372.84;146608;571;45016;-80
2022/02/18 02:19:24;;;;;;;;;14.50;13.75;;;;;7.37;73.10;100329.34;146606;577;46010;-81
2022/02/18 02:22:19;;;;;;;;;19.75;14.25;;;;;7.62;73.91;100361.72;146603;594;47014;-75
2022/02/18 02:25:11;;;;;;;;;25.00;22.00;;;;;7.58;74.03;100341.72;146604;602;46020;-77
2022/02/18 02:28:04;;;;;;;;;25.75;24.50;;;;;7.72;74.38;100361.44;146607;585;46012;-76
2022/02/18 02:30:56;;;;;;;;;15.00;12.25;;;;;7.81;73.35;100364.53;146606;578;46010;-84
2022/02/18 02:33:48;;;;;;;;;12.75;10.75;;;;;7.90;72.37;100371.03;146604;613;46017;-77
2022/02/18 02:36:42;;;;;;;;;9.25;8.25;;;;;7.93;72.30;100366.91;146609;692;46010;-74
2022/02/18 02:39:34;;;;;;;;;9.00;6.75;;;;;7.90;72.34;100371.91;146605;596;46016;-85
2022/02/18 02:42:26;;;;;;;;;9.00;9.00;;;;;7.85;73.07;100370.78;146607;610;46012;-77
2022/02/18 02:45:20;;;;;;;;;8.00;8.00;;;;;7.83;72.84;100382.69;146605;569;46916;-74
2022/02/18 02:48:13;;;;;;;;;8.25;7.25;;;;;7.80;72.72;100401.47;146607;597;46020;-78
2022/02/18 02:51:05;;;;;;;;;10.00;6.00;;;;;7.78;72.34;100423.72;146606;629;46016;-75
2022/02/18 02:53:58;;;;;;;;;7.75;6.25;;;;;7.82;72.28;100440.31;146610;575;46011;-79
2022/02/18 02:56:52;;;;;;;;;5.50;5.50;;;;;7.81;72.50;100438.50;146606;569;46016;-78
2022/02/18 02:59:44;;;;;;;;;5.75;5.75;;;;;7.72;72.79;100445.72;146607;610;46020;-82
2022/02/18 03:02:36;;;;;;;;;6.00;6.00;;;;;7.65;72.52;100441.88;146607;656;45917;-81
2022/02/18 03:05:29;;;;;;;;;8.50;7.75;;;;;7.59;72.84;100457.00;146607;585;46020;-76
2022/02/18 03:08:21;;;;;;;;;7.50;7.00;;;;;7.55;72.84;100461.09;146605;762;46016;-76
2022/02/18 03:11:16;;;;;;;;;5.75;5.00;;;;;7.53;72.54;100474.72;146604;630;46030;-76
2022/02/18 03:14:09;;;;;;;;;11.25;8.25;;;;;7.54;72.78;100479.06;146606;603;46012;-74
2022/02/18 03:17:01;;;;;;;;;10.75;7.00;;;;;7.49;72.65;100481.37;146606;582;46010;-74
2022/02/18 03:19:53;;;;;;;;;8.50;6.50;;;;;7.45;73.45;100509.50;146606;563;46012;-73
2022/02/18 03:22:46;;;;;;;;;10.50;9.25;;;;;7.40;73.40;100510.09;146608;662;46010;-74
2022/02/18 03:25:37;;;;;;;;;8.00;7.00;;;;;7.42;73.55;100499.00;146606;569;46013;-75
2022/02/18 03:28:30;;;;;;;;;8.25;8.00;;;;;7.38;73.18;100501.41;146605;624;46020;-72
2022/02/18 03:31:23;;;;;;;;;9.75;7.00;;;;;7.35;73.39;100490.88;146603;680;47012;-71
2022/02/18 03:34:15;;;;;;;;;8.75;7.00;;;;;6.25;73.80;100317.53;146609;569;46010;-71
2022/02/18 03:37:08;;;;;;;;;10.25;7.25;;;;;7.33;73.36;100513.09;146606;594;46015;-78
2022/02/18 03:40:00;;;;;;;;;8.50;6.25;;;;;7.32;74.18;100521.66;146608;584;46021;-77
2022/02/18 03:42:53;;;;;;;;;7.50;7.00;;;;;7.32;74.75;100518.16;146606;595;46014;-77
2022/02/18 03:45:45;;;;;;;;;6.50;4.50;;;;;7.31;74.92;100527.59;146601;570;46021;-69
2022/02/18 03:48:37;;;;;;;;;8.50;7.00;;;;;7.32;74.41;100523.31;146604;577;46016;-70
2022/02/18 03:51:29;;;;;;;;;7.75;7.00;;;;;7.32;74.19;100534.56;146608;590;46027;-70
2022/02/18 03:54:23;;;;;;;;;7.75;7.00;;;;;7.33;73.77;100526.00;146606;590;46016;-74
2022/02/18 03:57:16;;;;;;;;;8.50;7.50;;;;;7.32;74.14;100529.41;146605;581;47012;-74
2022/02/18 04:00:10;;;;;;;;;8.25;6.75;;;;;7.29;73.78;100530.88;146603;571;46017;-71
2022/02/18 04:03:03;;;;;;;;;10.25;7.50;;;;;7.22;73.85;100537.34;146609;584;46011;-73
2022/02/18 04:05:55;;;;;;;;;9.00;7.75;;;;;7.17;73.87;100544.81;146605;569;46016;-73
2022/02/18 04:08:47;;;;;;;;;7.25;6.50;;;;;7.14;73.15;100546.31;146610;588;46010;-72
2022/02/18 04:11:39;;;;;;;;;8.00;7.50;;;;;7.14;73.59;100548.91;146606;569;46016;-72
2022/02/18 04:14:32;;;;;;;;;6.75;6.75;;;;;7.02;73.15;100540.41;146604;635;46021;-76
2022/02/18 04:17:25;;;;;;;;;7.25;6.50;;;;;7.06;73.75;100569.03;146604;581;46016;-77
2022/02/18 04:20:18;;;;;;;;;12.25;11.00;;;;;6.99;74.52;100566.88;146606;660;46020;-75
2022/02/18 04:23:10;;;;;;;;;7.50;6.00;;;;;6.97;73.86;100564.97;146607;748;46012;-75
2022/02/18 04:26:02;;;;;;;;;7.75;7.00;;;;;6.96;74.40;100578.69;146604;576;47020;-83
2022/02/18 04:28:56;;;;;;;;;10.00;8.50;;;;;6.93;73.94;100569.06;146605;587;46016;-77
2022/02/18 04:31:48;;;;;;;;;9.50;8.50;;;;;6.89;73.95;100573.13;146607;569;46021;-73
2022/02/18 04:34:41;;;;;;;;;8.25;8.00;;;;;6.87;74.06;100586.72;146603;580;46016;-71
2022/02/18 04:37:34;;;;;;;;;10.50;9.00;;;;;6.89;76.28;100598.03;146608;566;46010;-71
2022/02/18 04:40:26;;;;;;;;;13.75;11.00;;;;;7.04;74.72;100613.53;146602;594;46034;-71
2022/02/18 04:43:18;;;;;;;;;10.00;10.00;;;;;7.16;73.60;100622.06;146607;592;46010;-71
2022/02/18 04:46:10;;;;;;;;;8.75;8.75;;;;;7.29;73.66;100626.28;146604;578;47014;-71
2022/02/18 04:49:03;;;;;;;;;7.75;7.75;;;;;7.43;73.31;100627.19;146608;569;46010;-71
2022/02/18 04:51:55;;;;;;;;;12.75;11.75;;;;;7.54;73.61;100628.72;146605;570;46017;-70
2022/02/18 04:54:48;;;;;;;;;10.50;8.25;;;;;7.62;73.04;100635.25;146609;586;46010;-71
2022/02/18 04:57:40;;;;;;;;;9.00;8.25;;;;;7.63;72.53;100624.13;146604;575;46016;-70
2022/02/18 05:00:33;;;;;;;;;9.25;9.00;;;;;7.69;73.08;100634.81;146606;564;46021;-74
2022/02/18 05:03:26;;;;;;;;;11.25;9.25;;;;;7.73;72.47;100639.38;146603;631;46016;-74
2022/02/18 05:06:18;;;;;;;;;7.25;7.25;;;;;7.74;72.19;100638.56;146605;594;46020;-74
2022/02/18 05:09:11;;;;;;;;;10.25;9.00;;;;;7.80;72.20;100646.69;146604;644;46014;-72
2022/02/18 05:12:03;;;;;;;;;12.25;11.00;;;;;7.84;72.74;100655.50;146604;563;46020;-71
2022/02/18 05:14:55;;;;;;;;;14.50;12.00;;;;;7.83;71.95;100659.78;146604;601;46017;-71
2022/02/18 05:17:48;;;;;;;;;9.25;9.00;;;;;7.83;72.17;100662.38;146605;619;46020;-71
2022/02/18 05:20:40;;;;;;;;;11.25;10.25;;;;;7.84;72.55;100664.16;146603;693;46016;-71
2022/02/18 05:23:33;;;;;;;;;14.00;12.00;;;;;7.85;72.43;100678.84;146605;598;46021;-73
2022/02/18 05:26:25;;;;;;;;;14.50;12.25;;;;;7.89;72.40;100685.09;146602;562;46016;-72
2022/02/18 05:29:17;;;;;;;;;14.75;12.25;;;;;6.75;72.97;100475.13;146607;592;46020;-77
2022/02/18 05:32:10;;;;;;;;;19.25;18.25;;;;;7.98;72.61;100682.19;146603;657;46016;-77
2022/02/18 05:35:02;;;;;;;;;19.50;16.00;;;;;8.00;72.96;100690.91;146605;719;46010;-78
2022/02/18 05:37:54;;;;;;;;;11.00;10.00;;;;;8.03;72.43;100709.16;146603;634;46016;-78
2022/02/18 05:40:46;;;;;;;;;17.75;12.50;;;;;8.05;73.16;100718.78;146603;613;46024;-80
2022/02/18 05:43:39;;;;;;;;;11.50;11.25;;;;;8.07;72.47;100730.12;146606;608;45017;-78
2022/02/18 05:46:31;;;;;;;;;11.75;7.00;;;;;8.07;73.41;100726.66;146607;631;46010;-77
2022/02/18 05:49:23;;;;;;;;;13.50;10.00;;;;;8.05;73.93;100751.47;146604;626;46016;-78
2022/02/18 05:52:15;;;;;;;;;24.25;18.50;;;;;8.03;74.58;100759.09;146604;570;46010;-78
2022/02/18 05:55:08;;;;;;;;;19.50;17.00;;;;;8.33;73.80;100769.56;146609;591;46014;-78
2022/02/18 05:58:01;;;;;;;;;21.00;17.25;;;;;8.96;72.61;100788.84;146606;567;46010;-77
2022/02/18 06:00:53;;;;;;;;;14.25;14.25;;;;;9.65;70.26;100785.00;146604;640;46016;-76
2022/02/18 06:03:46;;;;;;;;;19.50;14.25;;;;;10.44;69.04;100797.97;146607;610;47010;-75
2022/02/18 06:06:38;;;;;;;;;13.50;11.75;;;;;11.37;67.33;100796.63;146599;621;47917;-74
2022/02/18 06:09:30;;;;;;;;;15.00;13.00;;;;;12.21;63.30;100798.06;146606;616;46010;-79
2022/02/18 06:12:22;;;;;;;;;16.50;14.75;;;;;12.89;62.79;100804.53;146603;653;47012;-79
2022/02/18 06:15:14;;;;;;;;;14.25;12.50;;;;;13.63;60.61;100804.19;146604;615;46010;-81
2022/02/18 06:18:07;;;;;;;;;20.75;17.25;;;;;14.44;59.16;100797.72;146603;597;46016;-79
2022/02/18 06:20:59;;;;;;;;;12.25;12.00;;;;;15.15;57.25;100803.75;146608;674;46010;-75
2022/02/18 06:23:51;;;;;;;;;19.00;18.25;;;;;15.83;56.47;100804.25;146603;619;46012;-71
2022/02/18 06:26:44;;;;;;;;;20.00;17.00;;;;;15.57;54.25;100644.84;146607;619;46010;-72
2022/02/18 06:29:36;;;;;;;;;18.00;16.50;;;;;17.09;53.15;100808.75;146604;576;46036;-72
2022/02/18 06:32:28;;;;;;;;;25.00;21.25;;;;;17.40;51.42;100804.31;146604;572;46020;-73
2022/02/18 06:35:21;;;;;;;;;18.75;17.75;;;;;17.42;51.21;100813.97;146602;615;46016;-75
2022/02/18 06:38:14;;;;;;;;;24.00;21.75;;;;;17.58;50.46;100806.50;146603;627;46012;-74
2022/02/18 06:41:06;;;;;;;;;21.75;18.75;;;;;17.61;50.70;100809.19;146602;592;46916;-74
2022/02/18 06:43:58;;;;;;;;;31.75;27.00;;;;;17.62;51.39;100818.81;146607;605;46011;-88
2022/02/18 06:46:51;;;;;;;;;22.50;20.00;;;;;17.65;50.62;100824.13;146606;564;46012;-81
2022/02/18 06:49:44;;;;;;;;;25.75;23.50;;;;;17.57;50.67;100836.16;146606;570;46021;-82
2022/02/18 06:52:37;;;;;;;;;16.00;15.50;;;;;17.43;49.92;100843.69;146603;586;46017;-83
2022/02/18 06:55:29;;;;;;;;;14.50;12.75;;;;;17.19;50.36;100852.69;146605;603;46020;-83
2022/02/18 06:58:21;;;;;;;;;16.50;15.00;;;;;16.91;50.81;100858.03;146604;578;46017;-82
2022/02/18 07:01:13;;;;;;;;;13.50;11.00;;;;;16.58;51.96;100864.06;146606;573;47010;-81
2022/02/18 07:04:06;;;;;;;;;15.25;14.25;;;;;16.21;52.07;100873.44;146603;569;46014;-77
2022/02/18 07:06:58;;;;;;;;;17.00;13.75;;;;;15.84;52.61;100887.09;146609;615;45021;-79
2022/02/18 07:09:50;;;;;;;;;17.00;14.00;;;;;15.54;53.88;100889.53;146608;598;46012;-76
2022/02/18 07:12:43;;;;;;;;;15.00;12.50;;;;;15.26;54.25;100883.34;146608;616;46021;-81
2022/02/18 07:15:35;;;;;;;;;12.75;12.25;;;;;15.06;55.41;100884.41;146607;576;46012;-82
2022/02/18 07:18:29;;;;;;;;;21.00;13.75;;;;;14.97;56.89;100900.63;146607;592;46020;-83
2022/02/18 07:21:21;;;;;;;;;17.75;15.00;;;;;14.96;55.05;100904.06;146601;591;46017;-84
2022/02/18 07:24:15;;;;;;;;;19.00;17.50;;;;;14.96;56.42;100915.41;146604;564;46020;-81
2022/02/18 07:27:08;;;;;;;;;18.00;17.25;;;;;15.06;57.15;100931.41;146601;597;46017;-82
2022/02/18 07:30:00;;;;;;;;;23.50;21.25;;;;;15.19;55.71;100924.03;146606;587;46010;-80
2022/02/18 07:32:53;;;;;;;;;25.50;22.75;;;;;15.36;56.70;100940.34;146605;563;46014;-75
2022/02/18 07:35:45;;;;;;;;;21.25;19.50;;;;;15.52;55.91;100947.00;146602;689;46021;-74
2022/02/18 07:38:37;;;;;;;;;20.00;18.50;;;;;15.59;56.03;100948.97;146604;613;46016;-80
2022/02/18 07:41:30;;;;;;;;;20.75;19.50;;;;;15.71;56.56;100956.38;146607;681;46010;-71
2022/02/18 07:44:22;;;;;;;;;23.75;23.75;;;;;15.81;55.46;100950.62;146604;563;46916;-79
2022/02/18 07:47:16;;;;;;;;;24.00;21.50;;;;;15.96;56.42;100959.81;146606;633;46020;-76
2022/02/18 07:50:10;;;;;;;;;26.75;23.50;;;;;16.15;56.09;100955.22;146601;597;46017;-74
2022/02/18 07:53:02;;;;;;;;;25.25;21.50;;;;;16.27;52.15;100946.88;146605;666;47010;-75
2022/02/18 07:55:55;;;;;;;;;23.25;18.75;;;;;16.24;52.78;100938.94;146603;657;46916;-72
2022/02/18 07:58:47;;;;;;;;;25.75;18.25;;;;;16.15;52.90;100936.91;146604;583;46021;-76
2022/02/18 08:01:39;;;;;;;;;18.50;16.25;;;;;16.04;53.46;100950.47;146602;581;46016;-79
2022/02/18 08:04:32;;;;;;;;;25.75;18.50;;;;;16.01;55.09;100951.28;146605;672;46020;-79
2022/02/18 08:07:24;;;;;;;;;14.50;13.50;;;;;16.09;54.28;100947.19;146605;579;46016;-80
2022/02/18 08:10:16;;;;;;;;;19.00;16.25;;;;;16.20;54.04;100947.53;146607;580;46020;-75
2022/02/18 08:13:08;;;;;;;;;17.25;15.75;;;;;16.38;54.77;100937.63;146603;646;46917;-77
2022/02/18 08:16:01;;;;;;;;;15.50;13.75;;;;;16.59;54.81;100944.38;146606;675;46012;-67
2022/02/18 08:18:54;;;;;;;;;21.50;20.25;;;;;16.73;53.21;100943.06;146603;588;46916;-75
2022/02/18 08:21:46;;;;;;;;;31.50;27.75;;;;;16.84;53.84;100939.06;146607;580;46010;-76
2022/02/18 08:24:38;;;;;;;;;13.50;12.00;;;;;17.04;52.93;100957.06;146603;613;46916;-73
2022/02/18 08:27:30;;;;;;;;;15.25;12.00;;;;;17.25;52.99;100934.09;146604;577;49010;-75
2022/02/18 08:30:23;;;;;;;;;13.00;12.00;;;;;17.49;53.09;100949.59;146604;588;46016;-76
2022/02/18 08:33:15;;;;;;;;;11.50;9.50;;;;;17.70;50.60;100954.53;146605;598;46020;-75
2022/02/18 08:36:09;;;;;;;;;10.75;9.75;;;;;17.81;49.13;100946.94;146604;607;46916;-76
2022/02/18 08:39:01;;;;;;;;;7.50;7.50;;;;;17.89;48.28;100955.91;146607;563;46010;-79
2022/02/18 08:41:54;;;;;;;;;15.50;13.75;;;;;17.92;48.11;100953.38;146605;583;46917;-76
2022/02/18 08:44:46;;;;;;;;;11.50;9.25;;;;;17.97;46.13;100972.75;146605;596;46020;-76
2022/02/18 08:47:39;;;;;;;;;15.50;13.00;;;;;17.12;47.46;100827.19;146605;622;46014;-76
2022/02/18 08:50:32;;;;;;;;;14.25;12.75;;;;;18.08;47.36;100972.13;146603;593;46010;-77
2022/02/18 08:53:24;;;;;;;;;13.75;10.75;;;;;18.20;47.45;100982.91;146602;569;46012;-77
2022/02/18 08:56:17;;;;;;;;;11.25;10.75;;;;;18.29;48.47;100984.88;146610;602;46011;-77
2022/02/18 08:59:11;;;;;;;;;12.50;10.50;;;;;18.37;45.48;100973.69;146609;577;46012;-76
2022/02/18 09:02:03;;;;;;;;;9.75;9.75;;;;;18.41;45.61;100979.87;146605;602;46010;-76
2022/02/18 09:04:56;;;;;;;;;18.25;13.00;;;;;18.42;46.20;100990.44;146607;610;45035;-77
2022/02/18 09:07:48;;;;;;;;;15.75;13.00;;;;;18.45;43.70;100985.25;146606;583;46010;-76
2022/02/18 09:10:41;;;;;;;;;13.25;11.50;;;;;18.49;45.49;101001.09;146602;579;47012;-76
2022/02/18 09:13:33;;;;;;;;;10.00;10.00;;;;;18.50;43.56;101013.34;146607;570;46010;-76
2022/02/18 09:16:25;;;;;;;;;15.25;12.25;;;;;18.53;45.05;101010.81;146603;609;46014;-75
2022/02/18 09:19:18;;;;;;;;;11.50;10.75;;;;;18.55;43.21;101002.13;146606;694;46021;-76
2022/02/18 09:22:10;;;;;;;;;12.75;11.75;;;;;18.56;41.31;101001.25;146605;621;46016;-80
2022/02/18 09:25:02;;;;;;;;;10.75;10.75;;;;;18.56;44.29;101001.25;146606;658;46021;-78
2022/02/18 09:27:54;;;;;;;;;13.00;11.75;;;;;18.66;42.98;101008.50;146606;589;46012;-79
2022/02/18 09:30:51;;;;;;;;;10.50;9.75;;;;;18.80;43.39;101002.72;146604;635;47012;-80
2022/02/18 09:33:43;;;;;;;;;9.75;9.50;;;;;18.92;42.50;101008.25;146603;565;47014;-80
2022/02/18 09:36:35;;;;;;;;;10.50;9.00;;;;;19.04;40.83;100994.47;146607;577;45020;-74
2022/02/18 09:39:27;;;;;;;;;10.00;8.25;;;;;19.13;41.60;100985.03;146603;564;46012;-78
2022/02/18 09:42:21;;;;;;;;;10.00;9.00;;;;;19.22;40.14;101002.75;146604;572;46033;-79
2022/02/18 09:45:17;;;;;;;;;8.75;6.75;;;;;19.28;39.24;100992.34;146603;649;46016;-78
2022/02/18 09:48:09;;;;;;;;;9.25;7.50;;;;;19.32;39.97;101009.06;146610;566;45021;-77
2022/02/18 09:51:01;;;;;;;;;6.33;5.00;;;;;19.34;40.08;101002.97;146607;624;46916;-80
2022/02/18 09:53:58;;;;;;;;;7.00;7.00;;;;;19.43;42.01;100993.50;146609;652;46020;-77
2022/02/18 09:56:51;;;;;;;;;7.75;7.00;;;;;19.48;41.21;101015.53;146602;730;46016;-77
2022/02/18 09:59:45;;;;;;;;;7.25;7.25;;;;;19.59;40.90;100998.19;146608;593;46020;-77
2022/02/18 10:02:40;;;;;;;;;11.25;7.50;;;;;19.72;41.04;100987.09;146605;619;46017;-72
2022/02/18 10:05:32;;;;;;;;;5.75;5.75;;;;;19.78;38.68;100999.44;146607;637;47010;-73
2022/02/18 10:08:25;;;;;;;;;6.75;6.75;;;;;19.77;40.27;101000.31;146604;619;46016;-72
2022/02/18 10:11:18;;;;;;;;;8.25;7.25;;;;;19.77;40.51;101013.47;146604;670;46021;-72
2022/02/18 10:14:10;;;;;;;;;6.75;6.00;;;;;19.79;41.32;101027.53;146603;647;46016;-72
2022/02/18 10:17:13;;;;;;;;;10.50;8.50;;;;;19.83;39.83;101027.63;146605;593;46021;-73
2022/02/18 10:20:05;;;;;;;;;6.25;6.25;;;;;19.88;40.09;101027.72;146601;669;47014;-72
2022/02/18 10:23:07;;;;;;;;;18.00;13.75;;;;;20.00;41.12;101040.19;146606;647;46010;-72
2022/02/18 10:25:59;;;;;;;;;8.75;7.50;;;;;20.10;39.94;101021.09;146605;635;46012;-75
2022/02/18 10:29:01;;;;;;;;;5.67;5.67;;;;;20.21;39.78;101035.28;146609;565;46010;-73
2022/02/18 10:32:19;;;;;;;;;7.67;7.00;;;;;20.30;41.64;101008.22;146606;603;46012;-79
2022/02/18 10:35:12;;;;;;;;;7.67;6.67;;;;;20.37;39.20;101019.75;146610;705;45020;-77
2022/02/18 10:38:04;;;;;;;;;5.33;5.33;;;;;20.32;34.06;101009.16;146608;640;46917;-74
2022/02/18 10:40:59;;;;;;;;;9.67;7.33;;;;;20.28;36.91;101018.75;146606;679;46021;-76
2022/02/18 10:43:56;;;;;;;;;6.00;5.67;;;;;20.24;35.15;101018.66;146609;593;46012;-77
2022/02/18 10:46:55;;;;;;;;;4.67;4.67;;;;;20.27;37.54;101032.75;146608;623;46021;-77
2022/02/18 10:49:51;;;;;;;;;8.33;7.00;;;;;20.37;39.83;101032.91;146607;614;47012;-78
2022/02/18 10:52:43;;;;;;;;;4.33;4.33;;;;;20.50;34.45;101032.28;146609;565;46013;-79
2022/02/18 10:55:35;;;;;;;;;5.00;5.00;;;;;20.63;36.29;101018.44;146604;597;46017;-78
2022/02/18 10:58:33;;;;;;;;;8.75;7.25;;;;;20.76;35.58;101015.12;146608;682;46010;-76
2022/02/18 11:01:27;;;;;;;;;31.00;28.50;;;;;20.91;38.38;101026.75;146599;569;47917;-79
2022/02/18 11:04:30;;;;;;;;;9.00;7.75;;;;;21.08;37.08;101019.06;146607;631;47010;-76
2022/02/18 11:07:22;;;;;;;;;9.00;9.00;;;;;21.31;39.25;101045.69;146606;566;46917;-76
2022/02/18 11:10:49;;;;;;;;;9.00;7.00;;;;;21.54;38.81;101033.72;146606;632;46021;-77
2022/02/18 11:13:42;;;;;;;;;3.00;3.00;;;;;21.60;33.94;101017.06;146604;580;46018;-74
2022/02/18 11:16:37;;;;;;;;;4.00;4.00;;;;;21.55;34.90;101017.00;146609;610;46032;-77
2022/02/18 11:19:28;;;;;;;;;3.33;3.33;;;;;21.52;33.83;101008.19;146607;564;46916;-74
2022/02/18 11:22:22;;;;;;;;;1.67;1.67;;;;;21.46;35.48;101022.19;146608;655;46013;-74
2022/02/18 11:25:15;;;;;;;;;3.33;2.67;;;;;21.50;32.95;101002.91;146606;656;46016;-75
2022/02/18 11:28:07;;;;;;;;;3.00;1.33;;;;;21.56;32.06;100997.69;146609;599;46010;-74
2022/02/18 11:31:14;;;;;;;;;2.33;1.67;;;;;21.57;34.72;100993.28;146605;566;46917;-75
2022/02/18 11:34:37;;;;;;;;;2.00;2.00;;;;;21.64;36.07;100996.00;146609;569;46012;-73
2022/02/18 11:38:13;;;;;;;;;2.00;2.00;;;;;21.70;33.06;101004.84;146608;573;46917;-74
2022/02/18 11:41:45;;;;;;;;;2.67;2.67;;;;;21.73;31.75;100982.00;146606;572;46020;-73
2022/02/18 11:44:38;;;;;;;;;1.00;1.00;;;;;21.68;32.06;101005.75;146606;564;46017;-74
2022/02/18 11:47:37;;;;;;;;;0.67;0.67;;;;;21.62;30.88;100988.94;146609;683;46010;-74
2022/02/18 11:50:32;;;;;;;;;2.33;2.33;;;;;21.61;31.11;100997.72;146603;587;46016;-74
2022/02/18 11:54:03;;;;;;;;;1.33;1.33;;;;;21.71;36.06;100996.06;146605;569;46021;-74
2022/02/18 11:57:10;;;;;;;;;0.67;0.67;;;;;21.71;35.85;100990.78;146607;599;46012;-75
2022/02/18 12:00:07;;;;;;;;;3.67;2.33;;;;;21.70;32.58;100992.53;146627;570;46010;-73
2022/02/18 12:03:14;;;;;;;;;1.67;1.67;;;;;21.74;34.05;100994.34;146629;609;45016;-74
2022/02/18 12:06:25;;;;;;;;;2.33;2.33;;;;;21.82;35.86;100999.69;146629;579;45020;-74
2022/02/18 12:09:17;;;;;;;;;2.00;1.00;;;;;21.85;32.41;100990.06;146630;720;45012;-74
2022/02/18 12:12:09;;;;;;;;;3.67;3.67;;;;;21.79;32.36;100992.63;146629;570;45029;-74
2022/02/18 12:15:11;;;;;;;;;0.67;0.67;;;;;21.80;31.93;100985.59;146629;569;45017;-74
2022/02/18 12:18:05;;;;;;;;;7.33;5.67;;;;;21.85;30.67;100983.91;146631;582;45010;-74
2022/02/18 12:21:14;;;;;;;;;1.33;1.33;;;;;21.91;37.55;100982.19;146627;576;45017;-74
2022/02/18 12:24:51;;;;;;;;;1.00;1.00;;;;;22.09;38.24;100975.31;146631;576;46010;-73
2022/02/18 12:27:42;;;;;;;;;3.00;2.67;;;;;22.36;34.13;100985.22;146629;643;45018;-72
2022/02/18 12:30:40;;;;;;;;;3.00;1.67;;;;;22.59;31.97;100980.97;146630;572;46010;-72
2022/02/18 12:33:32;;;;;;;;;1.33;1.33;;;;;22.68;30.90;100979.25;146625;564;46014;-73
2022/02/18 12:36:24;;;;;;;;;2.33;2.00;;;;;22.66;30.97;100973.97;146630;581;45011;-72
2022/02/18 12:39:36;;;;;;;;;3.00;3.00;;;;;22.62;31.52;100958.06;146626;581;45916;-72
2022/02/18 12:42:31;;;;;;;;;3.33;3.33;;;;;22.60;32.86;100973.94;146632;591;46010;-73
2022/02/18 12:45:37;;;;;;;;;2.33;2.33;;;;;22.63;31.70;100973.06;146628;693;46010;-73
2022/02/18 12:48:40;;;;;;;;;4.00;3.00;;;;;22.66;34.13;100973.09;146628;625;45020;-73
2022/02/18 12:51:32;;;;;;;;;4.67;4.33;;;;;22.73;33.31;100972.22;146629;607;45028;-72
2022/02/18 12:54:24;;;;;;;;;5.67;5.00;;;;;22.78;32.00;100965.22;146628;693;45028;-72
2022/02/18 12:57:25;;;;;;;;;4.33;4.00;;;;;22.88;32.72;100968.78;146620;585;46012;-72
2022/02/18 13:00:19;;;;;;;;;5.00;3.67;;;;;22.85;31.00;100956.44;146628;583;45913;-73
2022/02/18 13:03:12;;;;;;;;;3.00;3.00;;;;;22.80;32.06;100964.38;146627;630;45016;-72
2022/02/18 13:06:08;;;;;;;;;3.00;3.00;;;;;22.85;32.79;100959.06;146628;642;45011;-72
2022/02/18 13:09:00;;;;;;;;;3.33;3.00;;;;;22.90;31.54;100965.28;146631;624;45916;-72
2022/02/18 13:11:53;;;;;;;;;2.67;2.00;;;;;22.95;31.38;100952.09;146630;699;45020;-73
2022/02/18 13:14:46;;;;;;;;;5.33;2.00;;;;;23.01;32.72;100953.00;146628;602;45017;-72
2022/02/18 13:17:38;;;;;;;;;5.00;4.00;;;;;23.09;32.12;100960.97;146631;578;45010;-72
2022/02/18 13:20:33;;;;;;;;;3.33;3.33;;;;;23.15;31.59;100953.06;146632;582;45015;-72
2022/02/18 13:23:31;;;;;;;;;2.33;2.33;;;;;23.21;34.72;100945.16;146629;581;46010;-73